createdAt,value
2019-03-21T00:02:14.129Z,17.80
2019-03-21T00:04:44.226Z,12.25
2019-03-21T00:07:13.183Z,9.88
2019-03-21T00:09:44.983Z,17.15
2019-03-21T00:12:13.979Z,22.48
2019-03-21T00:14:58.188Z,12.88
2019-03-21T00:17:38.777Z,13.68
2019-03-21T00:20:10.567Z,17.65
2019-03-21T00:22:39.435Z,17.52
2019-03-21T00:25:11.420Z,14.05
2019-03-21T00:27:40.269Z,17.00
2019-03-21T00:30:20.418Z,13.43
2019-03-21T00:32:49.550Z,15.60
2019-03-21T00:35:18.354Z,21.95
2019-03-21T00:37:47.238Z,18.92
2019-03-21T00:40:19.025Z,20.77
2019-03-21T00:42:48.322Z,19.23
2019-03-21T00:45:17.633Z,17.98
2019-03-21T00:51:15.038Z,17.25
2019-03-21T00:53:43.939Z,18.82
2019-03-21T00:56:12.736Z,23.02
2019-03-21T00:58:41.588Z,22.58
2019-03-21T01:01:10.793Z,19.02
2019-03-21T01:03:39.585Z,16.12
2019-03-21T01:06:08.778Z,18.48
2019-03-21T01:08:37.679Z,21.73
2019-03-21T01:11:06.492Z,19.87
2019-03-21T01:13:37.978Z,21.27
2019-03-21T01:16:06.808Z,18.87
2019-03-21T01:18:38.824Z,18.02
2019-03-21T01:21:07.619Z,17.52
2019-03-21T01:23:36.524Z,25.17
2019-03-21T01:26:08.273Z,22.45
2019-03-21T01:28:37.065Z,15.58
2019-03-21T01:31:05.902Z,17.62
2019-03-21T01:33:34.710Z,25.30
2019-03-21T01:36:04.615Z,23.22
2019-03-21T01:38:33.470Z,21.50
2019-03-21T01:41:05.262Z,16.75
2019-03-21T01:43:34.130Z,17.27
2019-03-21T01:46:05.047Z,20.90
2019-03-21T01:48:33.858Z,24.30
2019-03-21T01:51:02.733Z,18.25
2019-03-21T01:53:31.625Z,18.73
2019-03-21T01:56:00.416Z,17.60
2019-03-21T01:58:29.224Z,24.23
2019-03-21T02:00:58.336Z,20.50
2019-03-21T02:03:27.205Z,15.88
2019-03-21T02:05:56.024Z,22.70
2019-03-21T02:08:24.868Z,20.23
2019-03-21T02:10:53.672Z,21.12
2019-03-21T02:13:22.475Z,22.45
2019-03-21T02:15:51.282Z,17.85
2019-03-21T02:18:20.102Z,19.35
2019-03-21T02:20:48.971Z,21.10
2019-03-21T02:23:17.871Z,20.88
2019-03-21T02:25:46.874Z,17.75
2019-03-21T02:28:15.749Z,18.05
2019-03-21T02:30:52.640Z,20.00
2019-03-21T02:33:30.517Z,21.95
2019-03-21T02:35:59.312Z,16.87
2019-03-21T02:38:28.044Z,16.67
2019-03-21T02:41:00.351Z,22.45
2019-03-21T02:43:29.181Z,21.57
2019-03-21T02:45:58.063Z,21.33
2019-03-21T02:48:26.866Z,25.20
2019-03-21T02:50:55.699Z,22.15
2019-03-21T02:53:24.524Z,22.05
2019-03-21T02:55:53.287Z,18.48
2019-03-21T02:58:22.093Z,18.73
2019-03-21T03:00:50.955Z,20.50
2019-03-21T03:03:19.829Z,19.57
2019-03-21T03:05:48.649Z,19.15
2019-03-21T03:08:17.499Z,19.20
2019-03-21T03:10:49.334Z,18.52
2019-03-21T03:13:18.175Z,14.43
2019-03-21T03:15:46.942Z,17.98
2019-03-21T03:18:18.072Z,19.95
2019-03-21T03:20:46.934Z,14.47
2019-03-21T03:23:15.653Z,17.07
2019-03-21T03:25:44.432Z,21.80
2019-03-21T03:28:40.944Z,16.75
2019-03-21T03:31:09.900Z,17.50
2019-03-21T03:33:38.914Z,18.57
2019-03-21T03:36:07.769Z,17.05
2019-03-21T03:38:36.609Z,17.70
2019-03-21T03:41:19.582Z,20.60
2019-03-21T03:43:48.382Z,20.10
2019-03-21T03:46:17.171Z,17.82
2019-03-21T03:48:46.027Z,20.00
2019-03-21T03:51:14.849Z,16.25
2019-03-21T03:53:43.650Z,15.72
2019-03-21T03:56:12.485Z,15.95
2019-03-21T03:58:46.763Z,17.10
2019-03-21T04:01:15.597Z,17.87
2019-03-21T04:03:44.561Z,21.10
2019-03-21T04:06:13.444Z,14.68
2019-03-21T04:08:42.229Z,16.50
2019-03-21T04:11:11.336Z,14.03
2019-03-21T04:13:40.212Z,12.60
2019-03-21T04:16:09.156Z,16.60
2019-03-21T04:18:37.903Z,13.30
2019-03-21T04:21:12.463Z,13.70
2019-03-21T04:23:41.254Z,15.25
2019-03-21T04:26:22.116Z,18.30
2019-03-21T04:28:50.937Z,13.88
2019-03-21T04:31:19.817Z,16.20
2019-03-21T04:33:50.635Z,15.45
2019-03-21T04:36:19.417Z,14.20
2019-03-21T04:38:48.280Z,15.80
2019-03-21T04:41:17.091Z,18.10
2019-03-21T04:43:45.913Z,16.10
2019-03-21T04:46:14.680Z,17.00
2019-03-21T04:48:43.587Z,16.60
2019-03-21T04:51:12.383Z,13.68
2019-03-21T04:53:41.156Z,14.28
2019-03-21T04:56:10.023Z,16.97
2019-03-21T04:58:38.794Z,14.95
2019-03-21T05:01:07.620Z,17.20
2019-03-21T05:03:36.418Z,18.90
2019-03-21T05:06:05.335Z,14.25
2019-03-21T05:08:34.198Z,14.55
2019-03-21T05:11:03.041Z,14.50
2019-03-21T05:13:31.882Z,13.80
2019-03-21T05:16:00.648Z,13.72
2019-03-21T05:18:32.768Z,16.10
2019-03-21T05:21:02.710Z,13.10
2019-03-21T05:23:31.503Z,13.93
2019-03-21T05:26:00.398Z,15.23
2019-03-21T05:28:29.291Z,17.27
2019-03-21T05:31:07.775Z,14.85
2019-03-21T05:33:36.574Z,14.95
2019-03-21T05:36:05.519Z,12.82
2019-03-21T05:38:34.366Z,15.08
2019-03-21T05:41:03.134Z,16.23
2019-03-21T05:43:40.898Z,15.50
2019-03-21T05:46:09.741Z,19.73
2019-03-21T05:48:38.522Z,16.95
2019-03-21T05:51:07.355Z,15.90
2019-03-21T05:53:36.181Z,15.83
2019-03-21T05:56:04.991Z,16.95
2019-03-21T05:58:33.866Z,18.62
2019-03-21T06:01:08.531Z,21.87
2019-03-21T06:03:50.819Z,17.85
2019-03-21T06:06:37.406Z,16.95
2019-03-21T06:09:12.574Z,31.20
2019-03-21T06:11:44.505Z,27.45
2019-03-21T06:14:13.682Z,17.60
2019-03-21T06:16:42.489Z,14.47
2019-03-21T06:19:23.092Z,19.92
2019-03-21T06:22:17.603Z,17.10
2019-03-21T06:25:05.756Z,19.75
2019-03-21T06:27:34.588Z,23.77
2019-03-21T06:30:03.464Z,44.18
2019-03-21T06:32:32.290Z,55.90
2019-03-21T06:35:01.156Z,24.32
2019-03-21T06:37:30.003Z,19.15
2019-03-21T06:39:58.840Z,16.85
2019-03-21T06:42:27.671Z,18.05
2019-03-21T06:44:56.618Z,17.27
2019-03-21T06:47:25.495Z,14.70
2019-03-21T06:49:54.315Z,13.95
2019-03-21T06:52:23.092Z,13.98
2019-03-21T06:54:51.965Z,18.67
2019-03-21T06:57:20.814Z,17.73
2019-03-21T06:59:49.572Z,14.13
2019-03-21T07:02:18.399Z,13.88
2019-03-21T07:04:47.288Z,12.75
2019-03-21T07:07:16.152Z,15.90
2019-03-21T07:09:45.015Z,15.83
2019-03-21T07:12:13.873Z,13.50
2019-03-21T07:14:42.653Z,13.15
2019-03-21T07:17:11.613Z,20.00
2019-03-21T07:19:40.478Z,13.10
2019-03-21T07:22:09.270Z,17.32
2019-03-21T07:24:38.046Z,14.38
2019-03-21T07:27:06.862Z,13.25
2019-03-21T07:29:35.687Z,13.85
2019-03-21T07:32:04.483Z,11.73
2019-03-21T07:34:33.386Z,14.35
2019-03-21T07:37:02.147Z,11.33
2019-03-21T07:39:30.987Z,10.70
2019-03-21T07:42:01.217Z,12.50
2019-03-21T07:44:30.352Z,14.90
2019-03-21T07:46:59.153Z,14.38
2019-03-21T07:49:27.935Z,17.20
2019-03-21T07:51:56.790Z,12.35
2019-03-21T07:54:25.583Z,15.30
2019-03-21T07:56:54.365Z,14.63
2019-03-21T07:59:23.185Z,15.83
2019-03-21T08:01:51.987Z,16.00
2019-03-21T08:04:20.852Z,15.63
2019-03-21T08:06:49.735Z,21.45
2019-03-21T08:09:18.511Z,19.20
2019-03-21T08:11:47.343Z,20.77
2019-03-21T08:14:16.095Z,21.97
2019-03-21T08:16:44.928Z,25.68
2019-03-21T08:19:13.951Z,23.38
2019-03-21T08:21:42.819Z,21.80
2019-03-21T08:24:11.598Z,21.82
2019-03-21T08:26:40.484Z,25.43
2019-03-21T08:29:09.343Z,21.45
2019-03-21T08:31:38.127Z,23.02
2019-03-21T08:34:06.953Z,24.15
2019-03-21T08:36:35.799Z,22.07
2019-03-21T08:39:07.079Z,18.77
2019-03-21T08:41:35.988Z,17.90
2019-03-21T08:44:04.836Z,29.35
2019-03-21T08:46:33.616Z,18.25
2019-03-21T08:49:02.424Z,19.90
2019-03-21T08:51:31.347Z,14.13
2019-03-21T08:54:00.145Z,20.35
2019-03-21T08:56:29.002Z,13.22
2019-03-21T08:58:57.816Z,20.57
2019-03-21T09:01:26.670Z,19.73
2019-03-21T09:03:55.608Z,17.42
2019-03-21T09:06:24.435Z,19.00
2019-03-21T09:08:53.207Z,19.75
2019-03-21T09:11:22.132Z,17.20
2019-03-21T09:13:50.959Z,17.85
2019-03-21T09:16:19.742Z,16.77
2019-03-21T09:18:48.586Z,18.57
2019-03-21T09:21:19.952Z,13.78
2019-03-21T09:23:48.134Z,15.18
2019-03-21T09:26:16.903Z,15.43
2019-03-21T09:28:45.764Z,13.18
2019-03-21T09:31:14.623Z,12.90
2019-03-21T09:33:43.452Z,14.60
2019-03-21T09:36:12.245Z,21.27
2019-03-21T09:38:40.997Z,13.08
2019-03-21T09:41:09.897Z,16.90
2019-03-21T09:43:38.708Z,12.93
2019-03-21T09:46:07.590Z,12.33
2019-03-21T09:48:36.425Z,17.35
2019-03-21T09:51:05.298Z,16.65
2019-03-21T09:53:34.094Z,15.95
2019-03-21T09:56:02.940Z,19.15
2019-03-21T09:58:31.783Z,15.72
2019-03-21T10:01:00.607Z,20.68
2019-03-21T10:03:29.427Z,16.52
2019-03-21T10:05:58.233Z,14.05
2019-03-21T10:08:27.003Z,11.65
2019-03-21T10:10:55.831Z,13.15
2019-03-21T10:13:24.604Z,10.48
2019-03-21T10:15:53.474Z,11.78
2019-03-21T10:18:22.299Z,21.10
2019-03-21T10:20:51.173Z,13.13
2019-03-21T10:23:20.149Z,15.03
2019-03-21T10:25:49.018Z,14.33
2019-03-21T10:28:17.828Z,12.75
2019-03-21T10:30:46.626Z,12.78
2019-03-21T10:33:15.534Z,19.15
2019-03-21T10:35:44.417Z,15.20
2019-03-21T10:38:13.204Z,17.90
2019-03-21T10:40:41.982Z,17.87
2019-03-21T10:43:10.876Z,16.00
2019-03-21T10:45:39.635Z,19.45
2019-03-21T10:48:08.508Z,12.75
2019-03-21T10:50:41.645Z,14.50
2019-03-21T10:53:10.741Z,18.47
2019-03-21T10:55:39.630Z,17.75
2019-03-21T10:58:08.908Z,16.10
2019-03-21T11:00:37.852Z,13.95
2019-03-21T11:03:06.757Z,12.30
2019-03-21T11:05:35.856Z,16.85
2019-03-21T11:08:04.931Z,15.20
2019-03-21T11:10:33.773Z,16.23
2019-03-21T11:13:02.730Z,15.53
2019-03-21T11:15:31.683Z,26.02
2019-03-21T11:18:00.503Z,18.65
2019-03-21T11:20:36.492Z,15.70
2019-03-21T11:23:06.364Z,13.98
2019-03-21T11:25:35.564Z,13.22
2019-03-21T11:28:04.794Z,18.23
2019-03-21T11:30:35.958Z,18.65
2019-03-21T11:33:05.356Z,20.82
2019-03-21T11:35:35.048Z,15.35
2019-03-21T11:38:04.305Z,19.10
2019-03-21T11:40:33.049Z,25.60
2019-03-21T11:43:03.017Z,20.27
2019-03-21T11:45:31.871Z,15.55
2019-03-21T11:48:00.669Z,14.28
2019-03-21T11:50:29.468Z,17.50
2019-03-21T11:52:58.251Z,20.48
2019-03-21T11:55:27.044Z,19.07
2019-03-21T11:57:55.960Z,20.15
2019-03-21T12:00:24.747Z,18.05
2019-03-21T12:02:53.520Z,17.77
2019-03-21T12:05:22.425Z,17.52
2019-03-21T12:07:51.223Z,20.17
2019-03-21T12:10:20.250Z,24.57
2019-03-21T12:12:49.075Z,20.77
2019-03-21T12:15:18.119Z,18.98
2019-03-21T12:17:46.950Z,20.37
2019-03-21T12:20:30.725Z,21.60
2019-03-21T12:22:59.480Z,25.77
2019-03-21T12:25:28.343Z,21.65
2019-03-21T12:27:57.489Z,26.97
2019-03-21T12:30:36.961Z,21.37
2019-03-21T12:33:06.050Z,20.95
2019-03-21T12:35:34.891Z,19.45
2019-03-21T12:38:04.049Z,23.95
2019-03-21T12:40:32.884Z,24.25
2019-03-21T12:43:01.712Z,21.90
2019-03-21T12:45:30.459Z,23.35
2019-03-21T12:47:59.311Z,18.32
2019-03-21T12:50:28.178Z,22.77
2019-03-21T12:52:57.058Z,25.65
2019-03-21T12:55:25.846Z,26.65
2019-03-21T12:57:54.719Z,30.57
2019-03-21T13:00:38.004Z,21.15
2019-03-21T13:03:07.284Z,23.73
2019-03-21T13:05:36.022Z,26.85
2019-03-21T13:08:04.856Z,23.42
2019-03-21T13:10:33.672Z,22.02
2019-03-21T13:13:02.596Z,26.52
2019-03-21T13:15:31.529Z,25.23
2019-03-21T13:18:00.771Z,31.25
2019-03-21T13:20:29.773Z,24.18
2019-03-21T13:23:00.138Z,20.12
2019-03-21T13:25:28.943Z,23.27
2019-03-21T13:27:57.815Z,30.88
2019-03-21T13:30:26.792Z,27.13
2019-03-21T13:32:55.618Z,26.55
2019-03-21T13:35:32.645Z,27.20
2019-03-21T13:37:54.976Z,39.70
2019-03-21T13:40:23.751Z,29.12
2019-03-21T13:42:52.547Z,30.35
2019-03-21T13:45:21.355Z,27.93
2019-03-21T13:47:50.232Z,30.43
2019-03-21T13:50:19.046Z,27.75
2019-03-21T13:52:47.903Z,27.98
2019-03-21T13:55:16.789Z,30.97
2019-03-21T13:57:45.534Z,31.60
2019-03-21T14:00:21.710Z,29.80
2019-03-21T14:02:50.457Z,28.07
2019-03-21T14:05:19.279Z,34.95
2019-03-21T14:07:48.208Z,32.17
2019-03-21T14:10:17.149Z,28.40
2019-03-21T14:12:45.976Z,28.23
2019-03-21T14:15:17.074Z,29.87
2019-03-21T14:17:45.907Z,29.85
2019-03-21T14:20:15.894Z,35.70
2019-03-21T14:22:44.877Z,27.27
2019-03-21T14:25:13.688Z,25.08
2019-03-21T14:27:42.478Z,31.12
2019-03-21T14:30:16.062Z,28.10
2019-03-21T14:32:45.135Z,27.22
2019-03-21T14:35:14.295Z,22.75
2019-03-21T14:37:43.067Z,28.70
2019-03-21T14:40:13.723Z,25.48
2019-03-21T14:42:42.983Z,28.87
2019-03-21T14:45:16.428Z,32.13
2019-03-21T14:47:45.191Z,27.13
2019-03-21T14:50:16.166Z,33.18
2019-03-21T14:52:45.071Z,27.87
2019-03-21T14:55:15.667Z,32.30
2019-03-21T14:57:44.449Z,24.23
2019-03-21T15:00:20.827Z,25.45
2019-03-21T15:02:49.590Z,26.97
2019-03-21T15:05:18.318Z,31.15
2019-03-21T15:07:47.196Z,32.50
2019-03-21T15:10:18.223Z,22.73
2019-03-21T15:12:47.018Z,27.80
2019-03-21T15:15:16.523Z,31.60
2019-03-21T15:17:45.347Z,27.25
2019-03-21T15:20:16.110Z,31.00
2019-03-21T15:22:44.897Z,26.77
2019-03-21T15:25:14.098Z,30.72
2019-03-21T15:27:42.858Z,19.45
2019-03-21T15:30:14.942Z,27.65
2019-03-21T15:32:44.043Z,21.73
2019-03-21T15:35:15.648Z,32.85
2019-03-21T15:37:44.544Z,21.27
2019-03-21T15:40:14.915Z,25.62
2019-03-21T15:42:43.709Z,28.55
2019-03-21T15:45:22.930Z,22.48
2019-03-21T15:47:48.867Z,24.98
2019-03-21T15:50:37.622Z,25.90
2019-03-21T15:53:07.109Z,28.85
2019-03-21T15:55:35.941Z,24.30
2019-03-21T15:58:04.908Z,23.55
2019-03-21T16:00:38.271Z,21.00
2019-03-21T16:03:08.584Z,21.65
2019-03-21T16:05:38.063Z,21.27
2019-03-21T16:08:09.007Z,21.40
2019-03-21T16:10:38.307Z,20.02
2019-03-21T16:13:07.364Z,19.52
2019-03-21T16:15:36.175Z,17.87
2019-03-21T16:18:05.516Z,17.62
2019-03-21T16:20:34.355Z,21.87
2019-03-21T16:23:03.422Z,14.03
2019-03-21T16:25:32.376Z,16.75
2019-03-21T16:28:01.094Z,14.05
2019-03-21T16:30:30.010Z,11.25
2019-03-21T16:32:58.894Z,13.13
2019-03-21T16:35:27.647Z,12.85
2019-03-21T16:37:56.681Z,7.97
2019-03-21T16:40:25.512Z,12.33
2019-03-21T16:42:54.382Z,9.85
2019-03-21T16:45:23.165Z,9.63
2019-03-21T16:47:52.175Z,11.73
2019-03-21T16:50:20.993Z,9.25
2019-03-21T16:52:49.734Z,10.05
2019-03-21T16:55:18.540Z,11.48
2019-03-21T16:57:47.383Z,11.33
2019-03-21T17:00:20.265Z,9.45
2019-03-21T17:02:49.083Z,5.87
2019-03-21T17:05:17.935Z,10.32
2019-03-21T17:07:46.777Z,7.22
2019-03-21T17:10:16.800Z,20.00
2019-03-21T17:12:45.597Z,7.42
2019-03-21T17:15:14.677Z,10.60
2019-03-21T17:17:43.488Z,7.00
2019-03-21T17:20:14.125Z,7.10
2019-03-21T17:22:42.980Z,10.68
2019-03-21T17:25:12.641Z,6.62
2019-03-21T17:27:41.510Z,7.25
2019-03-21T17:30:15.394Z,9.60
2019-03-21T17:32:46.889Z,7.25
2019-03-21T17:35:15.748Z,7.67
2019-03-21T17:37:44.593Z,7.45
2019-03-21T17:40:15.109Z,8.55
2019-03-21T17:42:43.919Z,8.80
2019-03-21T17:45:17.653Z,8.93
2019-03-21T17:47:46.471Z,10.68
2019-03-21T17:50:18.146Z,10.10
2019-03-21T17:52:47.273Z,9.23
2019-03-21T17:55:16.618Z,8.48
2019-03-21T17:57:45.429Z,10.00
2019-03-21T18:00:21.537Z,8.45
2019-03-21T18:02:50.326Z,9.98
2019-03-21T18:05:19.726Z,10.28
2019-03-21T18:07:48.546Z,9.60
2019-03-21T18:10:28.412Z,8.75
2019-03-21T18:12:57.576Z,9.55
2019-03-21T18:15:26.827Z,8.28
2019-03-21T18:17:55.574Z,7.92
2019-03-21T18:20:24.484Z,11.40
2019-03-21T18:22:53.262Z,8.75
2019-03-21T18:25:21.995Z,9.65
2019-03-21T18:27:50.864Z,9.55
2019-03-21T18:30:20.821Z,13.05
2019-03-21T18:32:49.642Z,12.58
2019-03-21T18:35:20.131Z,12.63
2019-03-21T18:37:48.911Z,12.82
2019-03-21T18:40:17.687Z,13.78
2019-03-21T18:42:46.480Z,16.60
2019-03-21T18:45:16.026Z,12.05
2019-03-21T18:47:44.932Z,13.68
2019-03-21T18:50:15.571Z,12.63
2019-03-21T18:52:44.414Z,13.95
2019-03-21T18:55:13.356Z,12.78
2019-03-21T18:57:42.139Z,14.15
2019-03-21T19:00:15.955Z,13.78
2019-03-21T19:02:44.873Z,14.58
2019-03-21T19:05:14.576Z,14.15
2019-03-21T19:07:43.337Z,18.10
2019-03-21T19:10:13.460Z,15.63
2019-03-21T19:12:42.423Z,13.70
2019-03-21T19:15:16.142Z,16.70
2019-03-21T19:17:45.012Z,15.25
2019-03-21T19:20:18.474Z,17.32
2019-03-21T19:22:47.875Z,15.18
2019-03-21T19:25:19.313Z,14.78
2019-03-21T19:27:48.580Z,12.78
2019-03-21T19:30:21.443Z,14.70
2019-03-21T19:32:50.313Z,14.18
2019-03-21T19:35:19.126Z,14.93
2019-03-21T19:37:48.069Z,15.30
2019-03-21T19:40:18.531Z,13.70
2019-03-21T19:42:47.433Z,14.80
2019-03-21T19:45:17.859Z,15.53
2019-03-21T19:47:46.807Z,17.73
2019-03-21T19:50:18.041Z,14.40
2019-03-21T19:52:46.950Z,15.50
2019-03-21T19:55:15.912Z,15.68
2019-03-21T19:57:44.768Z,17.10
2019-03-21T20:00:22.554Z,22.37
2019-03-21T20:02:51.453Z,17.55
2019-03-21T20:05:20.306Z,18.25
2019-03-21T20:07:49.187Z,19.42
2019-03-21T20:10:20.016Z,19.32
2019-03-21T20:12:48.900Z,16.27
2019-03-21T20:15:18.632Z,16.35
2019-03-21T20:17:47.489Z,16.23
2019-03-21T20:20:17.083Z,16.42
2019-03-21T20:22:47.521Z,17.75
2019-03-21T20:29:33.716Z,17.27
2019-03-21T20:32:02.643Z,18.45
2019-03-21T20:34:31.558Z,17.10
2019-03-21T20:37:00.457Z,17.42
2019-03-21T20:39:29.457Z,17.87
2019-03-21T20:41:58.436Z,18.92
2019-03-21T20:44:27.375Z,17.67
2019-03-21T20:46:56.237Z,20.70
2019-03-21T20:49:25.147Z,20.10
2019-03-21T20:51:54.045Z,17.65
2019-03-21T20:54:22.812Z,18.98
2019-03-21T20:56:51.616Z,19.70
2019-03-21T20:59:21.501Z,18.17
2019-03-21T21:01:50.387Z,16.90
2019-03-21T21:04:19.191Z,18.30
2019-03-21T21:06:48.146Z,17.00
2019-03-21T21:09:16.994Z,19.00
2019-03-21T21:11:45.840Z,14.50
2019-03-21T21:14:14.638Z,16.65
2019-03-21T21:16:43.544Z,17.75
2019-03-21T21:19:12.408Z,14.05
2019-03-21T21:21:41.333Z,13.72
2019-03-21T21:24:10.191Z,17.17
2019-03-21T21:26:39.061Z,16.12
2019-03-21T21:29:07.961Z,15.98
2019-03-21T21:31:36.770Z,13.90
2019-03-21T21:34:05.730Z,16.73
2019-03-21T21:36:34.611Z,13.45
2019-03-21T21:39:03.809Z,17.23
2019-03-21T21:41:34.062Z,15.28
2019-03-21T21:44:02.959Z,16.30
2019-03-21T21:46:33.463Z,17.70
2019-03-21T21:49:02.316Z,14.58
2019-03-21T21:51:31.163Z,15.65
2019-03-21T21:53:59.932Z,13.95
2019-03-21T21:56:28.789Z,14.55
2019-03-21T21:58:57.660Z,17.48
2019-03-21T22:01:29.515Z,14.65
2019-03-21T22:04:04.962Z,15.25
2019-03-21T22:06:30.635Z,14.28
2019-03-21T22:08:59.488Z,12.58
2019-03-21T22:11:28.290Z,14.93
2019-03-21T22:13:57.167Z,13.72
2019-03-21T22:16:27.505Z,14.78
2019-03-21T22:18:56.538Z,13.32
2019-03-21T22:21:25.345Z,13.15
2019-03-21T22:23:56.875Z,11.55
2019-03-21T22:26:29.852Z,13.98
2019-03-21T22:28:56.271Z,14.75
2019-03-21T22:31:25.132Z,14.93
2019-03-21T22:33:53.949Z,12.80
2019-03-21T22:36:22.741Z,14.50
2019-03-21T22:38:51.547Z,11.97
2019-03-21T22:41:20.417Z,9.80
2019-03-21T22:43:49.339Z,11.97
2019-03-21T22:46:18.210Z,13.32
2019-03-21T22:48:47.156Z,10.90
2019-03-21T22:51:16.014Z,14.87
2019-03-21T22:53:44.890Z,11.60
2019-03-21T22:56:13.759Z,10.72
2019-03-21T22:58:42.622Z,12.50
2019-03-21T23:01:11.414Z,13.93
2019-03-21T23:03:40.241Z,14.33
2019-03-21T23:06:09.073Z,12.37
2019-03-21T23:08:37.922Z,12.47
2019-03-21T23:11:08.357Z,11.43
2019-03-21T23:13:37.154Z,11.45
2019-03-21T23:16:05.929Z,11.93
2019-03-21T23:18:34.678Z,10.30
2019-03-21T23:21:03.477Z,10.15
2019-03-21T23:23:32.319Z,9.85
2019-03-21T23:26:01.087Z,10.55
2019-03-21T23:28:29.863Z,8.10
2019-03-21T23:30:58.598Z,7.78
2019-03-21T23:33:27.395Z,5.58
2019-03-21T23:35:56.211Z,8.80
2019-03-21T23:38:25.057Z,6.47
2019-03-21T23:40:53.874Z,6.85
2019-03-21T23:43:22.695Z,6.62
2019-03-21T23:45:51.814Z,8.90
2019-03-21T23:48:20.653Z,9.70
2019-03-21T23:50:49.411Z,10.23
2019-03-21T23:53:18.331Z,5.95
2019-03-21T23:55:47.199Z,6.28
2019-03-21T23:58:16.023Z,6.30
